MSC Mara — V7NF9 — position and weather

sailwx.info

Track history (hours):
 
Tides and Currents Weather Stations Pressure Air Temp Water Temp Dewpoint Dewpoint Depression Visibility Wind Speed Wind Dir Waves Ship Positions

MSC Mara

Last reported at 2016-Sep-17 13:33 UTC. Time now 2016-Sep-29 11:57 UTC.
Position S 27°18' E 153°13'.
Warning: this ship's position is 11 days out of date.

Length 294 m; draft 11.4 m.

Type: Ship (hazmat cat C). MMSI: 538002955.

Date/timePositionNaut miles runAvg speedWind from/ knotsBaromVisibWave heightAir tempDewpointWater temp
2016-Sep-17 13:33S 27°18' E 153°13'5 5.2
2016-Sep-17 12:33S 27°22' E 153°10'0 0.0
2016-Sep-17 10:31S 27°22' E 153°10'0 0.0
2016-Sep-17 09:31S 27°22' E 153°10'0 0.0
2016-Sep-17 08:31S 27°22' E 153°10'0 0.0
2016-Sep-17 07:31S 27°22' E 153°10'0 0.0
2016-Sep-17 05:31S 27°22' E 153°10'0 0.0
2016-Sep-17 04:28S 27°22' E 153°10'0 0.0
2016-Sep-17 00:28S 27°22' E 153°10'0 0.0
2016-Sep-16 17:31S 27°22' E 153°10'0 0.0
2016-Sep-16 15:31S 27°22' E 153°10'0 0.0
2016-Sep-16 12:33S 27°22' E 153°10'0 0.0
2016-Sep-16 09:33S 27°22' E 153°10'14 7.2
2016-Sep-16 07:34S 27°11' E 153°21'23 5.4
2016-Sep-16 03:21S 26°51' E 153°31'1010.4
2016-Sep-16 02:22S 26°57' E 153°40'34911.9
2016-Sep-14 21:08S 32°42' E 152°43'282 5.9
2016-Sep-12 21:32S 37°01' E 150°27'3015.3
2016-Sep-12 19:33S 37°30' E 150°17'3015.1
2016-Sep-12 17:33S 37°51' E 149°50'15915.9
2016-Sep-12 07:32S 39°11' E 146°54'1717.0
2016-Sep-12 06:33S 39°17' E 146°34'  
2016-Sep-10 01:33S 39°07' E 146°01'1414.2
2016-Sep-10 00:33S 39°11' E 146°18'1514.6
2016-Sep-09 23:33S 39°07' E 146°36'1515.3
2016-Sep-09 22:33S 39°02' E 146°55'1615.7
2016-Sep-09 21:33S 38°57' E 147°14'7615.1
2016-Sep-09 16:31S 38°26' E 148°43'1515.8
2016-Sep-09 15:33S 38°17' E 148°59'1615.8
2016-Sep-09 14:33S 38°07' E 149°15'1615.7
2016-Sep-09 13:33S 37°58' E 149°31'1515.3
2016-Sep-09 12:33S 37°49' E 149°47'1514.8
2016-Sep-09 11:34S 37°41' E 150°02'1515.4
2016-Sep-09 10:33S 37°29' E 150°15'1717.0
2016-Sep-09 09:33S 37°14' E 150°24'1616.1
2016-Sep-09 08:33S 36°59' E 150°31'1615.8
2016-Sep-09 07:33S 36°44' E 150°39'1817.4
2016-Sep-09 06:30S 36°27' E 150°47'1617.1
2016-Sep-09 05:33S 36°12' E 150°55'1616.4
2016-Sep-09 04:33S 35°57' E 151°04'1715.1
2016-Sep-09 03:24S 35°41' E 151°12'1314.9
2016-Sep-09 02:32S 35°29' E 151°18'3514.2
2016-Sep-09 00:05S 34°57' E 151°35'13317.3
2016-Sep-08 16:24S 32°55' E 152°38'1518.1
2016-Sep-08 15:33S 32°41' E 152°45'  
Track history (hours):
 
Tides and Currents Weather Stations Pressure Air Temp Water Temp Dewpoint Dewpoint Depression Visibility Wind Speed Wind Dir Waves Ship Positions

MSC Mara

Last reported at 2016-Sep-17 13:33 UTC. Time now 2016-Sep-29 11:57 UTC.
Position S 27°18' E 153°13'.
Warning: this ship's position is 11 days out of date.

Length 294 m; draft 11.4 m.

Type: Ship (hazmat cat C). MMSI: 538002955.

Date/timePositionNaut miles runAvg speedWind from/ knotsBaromVisibWave heightAir tempDewpointWater temp
2016-Sep-17 13:33S 27°18' E 153°13'5 5.2
2016-Sep-17 12:33S 27°22' E 153°10'0 0.0
2016-Sep-17 10:31S 27°22' E 153°10'0 0.0
2016-Sep-17 09:31S 27°22' E 153°10'0 0.0
2016-Sep-17 08:31S 27°22' E 153°10'0 0.0
2016-Sep-17 07:31S 27°22' E 153°10'0 0.0
2016-Sep-17 05:31S 27°22' E 153°10'0 0.0
2016-Sep-17 04:28S 27°22' E 153°10'0 0.0
2016-Sep-17 00:28S 27°22' E 153°10'0 0.0
2016-Sep-16 17:31S 27°22' E 153°10'0 0.0
2016-Sep-16 15:31S 27°22' E 153°10'0 0.0
2016-Sep-16 12:33S 27°22' E 153°10'0 0.0
2016-Sep-16 09:33S 27°22' E 153°10'14 7.2
2016-Sep-16 07:34S 27°11' E 153°21'23 5.4
2016-Sep-16 03:21S 26°51' E 153°31'1010.4
2016-Sep-16 02:22S 26°57' E 153°40'34911.9
2016-Sep-14 21:08S 32°42' E 152°43'282 5.9
2016-Sep-12 21:32S 37°01' E 150°27'3015.3
2016-Sep-12 19:33S 37°30' E 150°17'3015.1
2016-Sep-12 17:33S 37°51' E 149°50'15915.9
2016-Sep-12 07:32S 39°11' E 146°54'1717.0
2016-Sep-12 06:33S 39°17' E 146°34'  
2016-Sep-10 01:33S 39°07' E 146°01'1414.2
2016-Sep-10 00:33S 39°11' E 146°18'1514.6
2016-Sep-09 23:33S 39°07' E 146°36'1515.3
2016-Sep-09 22:33S 39°02' E 146°55'1615.7
2016-Sep-09 21:33S 38°57' E 147°14'7615.1
2016-Sep-09 16:31S 38°26' E 148°43'1515.8
2016-Sep-09 15:33S 38°17' E 148°59'1615.8
2016-Sep-09 14:33S 38°07' E 149°15'1615.7
2016-Sep-09 13:33S 37°58' E 149°31'1515.3
2016-Sep-09 12:33S 37°49' E 149°47'1514.8
2016-Sep-09 11:34S 37°41' E 150°02'1515.4
2016-Sep-09 10:33S 37°29' E 150°15'1717.0
2016-Sep-09 09:33S 37°14' E 150°24'1616.1
2016-Sep-09 08:33S 36°59' E 150°31'1615.8
2016-Sep-09 07:33S 36°44' E 150°39'1817.4
2016-Sep-09 06:30S 36°27' E 150°47'1617.1
2016-Sep-09 05:33S 36°12' E 150°55'1616.4
2016-Sep-09 04:33S 35°57' E 151°04'1715.1
2016-Sep-09 03:24S 35°41' E 151°12'1314.9
2016-Sep-09 02:32S 35°29' E 151°18'3514.2
2016-Sep-09 00:05S 34°57' E 151°35'13317.3
2016-Sep-08 16:24S 32°55' E 152°38'1518.1
2016-Sep-08 15:33S 32°41' E 152°45'  

Dump ship's entire track history